createdAt,value
2019-03-20T00:03:01.758Z,4.30
2019-03-20T00:08:08.659Z,3.97
2019-03-20T00:13:15.824Z,3.77
2019-03-20T00:18:22.734Z,3.00
2019-03-20T00:23:29.313Z,4.37
2019-03-20T00:28:35.272Z,3.87
2019-03-20T00:33:41.656Z,3.30
2019-03-20T00:38:48.148Z,3.07
2019-03-20T00:43:54.517Z,3.00
2019-03-20T00:49:21.319Z,3.63
2019-03-20T00:54:28.175Z,4.67
2019-03-20T00:59:34.166Z,4.57
2019-03-20T01:04:42.659Z,4.23
2019-03-20T01:09:50.967Z,4.20
2019-03-20T01:14:57.500Z,4.37
2019-03-20T01:20:04.960Z,4.43
2019-03-20T01:25:12.394Z,4.73
2019-03-20T01:30:39.778Z,4.60
2019-03-20T01:35:46.249Z,4.37
2019-03-20T01:40:52.658Z,4.60
2019-03-20T01:46:00.262Z,4.57
2019-03-20T01:51:22.691Z,4.83
2019-03-20T01:56:29.640Z,4.67
2019-03-20T02:01:35.637Z,5.00
2019-03-20T02:06:42.591Z,5.40
2019-03-20T02:11:49.269Z,5.03
2019-03-20T02:16:56.030Z,4.90
2019-03-20T02:22:02.853Z,4.50
2019-03-20T02:27:10.146Z,5.10
2019-03-20T02:32:16.699Z,5.43
2019-03-20T02:37:23.143Z,4.50
2019-03-20T02:42:29.733Z,5.53
2019-03-20T02:47:35.675Z,4.93
2019-03-20T02:52:42.230Z,5.23
2019-03-20T02:57:48.686Z,5.20
2019-03-20T03:02:55.152Z,5.13
2019-03-20T03:08:01.733Z,5.00
2019-03-20T03:13:29.006Z,5.63
2019-03-20T03:18:34.931Z,4.80
2019-03-20T03:23:41.479Z,4.67
2019-03-20T03:28:47.952Z,5.03
2019-03-20T03:33:54.323Z,4.40
2019-03-20T03:39:02.234Z,5.07
2019-03-20T03:44:29.324Z,4.87
2019-03-20T03:49:35.256Z,4.60
2019-03-20T03:54:41.739Z,4.20
2019-03-20T03:59:48.513Z,5.00
2019-03-20T04:04:55.469Z,4.40
2019-03-20T04:10:02.208Z,4.13
2019-03-20T04:15:17.319Z,4.37
2019-03-20T04:20:24.095Z,4.73
2019-03-20T04:25:30.084Z,4.37
2019-03-20T04:30:36.065Z,3.30
2019-03-20T04:35:42.512Z,3.77
2019-03-20T04:40:48.984Z,4.83
2019-03-20T04:45:55.709Z,5.70
2019-03-20T04:51:02.201Z,5.90
2019-03-20T04:56:08.654Z,4.63
2019-03-20T05:01:16.486Z,4.83
2019-03-20T05:06:23.187Z,4.63
2019-03-20T05:11:30.231Z,4.40
2019-03-20T05:16:36.159Z,4.43
2019-03-20T05:21:43.847Z,5.23
2019-03-20T05:26:50.676Z,5.13
2019-03-20T05:31:57.511Z,4.07
2019-03-20T05:37:10.280Z,4.17
2019-03-20T05:42:33.039Z,4.70
2019-03-20T05:47:39.875Z,4.70
2019-03-20T05:53:07.928Z,4.93
2019-03-20T05:58:14.665Z,6.53
2019-03-20T06:03:21.691Z,4.73
2019-03-20T06:08:28.607Z,4.73
2019-03-20T06:13:34.617Z,5.43
2019-03-20T06:18:41.468Z,4.70
2019-03-20T06:24:09.138Z,4.60
2019-03-20T06:29:15.897Z,4.87
2019-03-20T06:34:43.309Z,4.60
2019-03-20T06:39:50.378Z,4.13
2019-03-20T06:44:58.470Z,3.90
2019-03-20T06:50:08.979Z,4.53
2019-03-20T06:55:15.868Z,4.23
2019-03-20T07:00:43.109Z,12.33
2019-03-20T07:05:59.910Z,4.80
2019-03-20T07:11:12.006Z,4.17
2019-03-20T07:16:38.082Z,4.07
2019-03-20T07:21:44.713Z,7.43
2019-03-20T07:26:51.584Z,5.33
2019-03-20T07:32:10.134Z,4.40
2019-03-20T07:37:17.173Z,3.50
2019-03-20T07:42:23.752Z,3.43
2019-03-20T07:47:30.236Z,3.50
2019-03-20T07:52:38.022Z,3.00
2019-03-20T07:57:44.840Z,3.50
2019-03-20T08:02:51.402Z,3.17
2019-03-20T08:08:06.794Z,3.53
2019-03-20T08:13:07.075Z,3.23
2019-03-20T08:18:13.915Z,3.30
2019-03-20T08:23:20.722Z,3.27
2019-03-20T08:28:27.599Z,2.67
2019-03-20T08:33:33.584Z,2.60
2019-03-20T08:38:39.647Z,2.20
2019-03-20T08:43:46.613Z,2.33
2019-03-20T08:48:53.460Z,2.37
2019-03-20T08:54:00.247Z,1.77
2019-03-20T08:59:07.033Z,1.80
2019-03-20T09:04:13.939Z,2.17
2019-03-20T09:09:20.839Z,2.93
2019-03-20T09:14:29.136Z,2.83
2019-03-20T09:19:35.152Z,2.30
2019-03-20T09:24:42.073Z,3.03
2019-03-20T09:29:50.046Z,2.47
2019-03-20T09:34:57.964Z,2.20
2019-03-20T09:40:11.410Z,2.13
2019-03-20T09:45:22.943Z,2.40
2019-03-20T09:50:30.500Z,2.17
2019-03-20T09:55:36.514Z,2.30
2019-03-20T10:00:42.531Z,2.40
2019-03-20T10:05:50.257Z,2.67
2019-03-20T10:10:57.091Z,2.77
2019-03-20T10:16:03.943Z,2.97
2019-03-20T10:21:10.747Z,3.03
2019-03-20T10:26:18.765Z,3.37
2019-03-20T10:31:25.617Z,3.67
2019-03-20T10:36:31.643Z,3.17
2019-03-20T10:41:37.631Z,3.10
2019-03-20T10:46:44.244Z,3.20
2019-03-20T10:51:50.932Z,3.37
2019-03-20T10:56:57.435Z,3.83
2019-03-20T11:02:04.261Z,4.53
2019-03-20T11:07:11.252Z,3.57
2019-03-20T11:12:18.220Z,4.07
2019-03-20T11:17:26.024Z,4.03
2019-03-20T11:22:32.027Z,3.90
2019-03-20T11:27:38.909Z,4.17
2019-03-20T11:32:45.831Z,4.57
2019-03-20T11:37:52.973Z,4.60
2019-03-20T11:42:59.809Z,4.43
2019-03-20T11:48:06.696Z,4.67
2019-03-20T11:53:13.292Z,4.37
2019-03-20T11:58:19.844Z,4.30
2019-03-20T12:03:26.960Z,4.63
2019-03-20T12:08:33.009Z,3.20
2019-03-20T12:13:39.024Z,4.00
2019-03-20T12:18:45.970Z,4.47
2019-03-20T12:23:52.975Z,4.17
2019-03-20T12:28:59.474Z,4.07
2019-03-20T12:34:06.498Z,4.60
2019-03-20T12:39:13.552Z,5.13
2019-03-20T12:44:20.765Z,4.43
2019-03-20T12:49:27.528Z,3.90
2019-03-20T12:54:33.503Z,4.40
2019-03-20T12:59:40.534Z,4.30
2019-03-20T13:04:48.560Z,4.87
2019-03-20T13:10:03.043Z,4.87
2019-03-20T13:15:04.158Z,4.17
2019-03-20T13:20:12.261Z,4.40
2019-03-20T13:25:18.757Z,4.10
2019-03-20T13:30:32.524Z,4.40
2019-03-20T13:35:39.414Z,4.80
2019-03-20T13:40:45.895Z,3.87
2019-03-20T13:45:52.854Z,3.77
2019-03-20T13:50:59.271Z,3.20
2019-03-20T13:56:06.274Z,4.40
2019-03-20T14:01:13.231Z,3.63
2019-03-20T14:06:20.169Z,3.17
2019-03-20T14:11:27.355Z,3.20
2019-03-20T14:16:46.246Z,3.40
2019-03-20T14:21:53.987Z,3.40
2019-03-20T14:27:02.409Z,3.70
2019-03-20T14:32:09.391Z,3.20
2019-03-20T14:37:16.163Z,3.20
2019-03-20T14:42:23.079Z,3.70
2019-03-20T14:47:29.990Z,3.60
2019-03-20T14:52:36.102Z,4.43
2019-03-20T14:57:43.107Z,4.97
2019-03-20T15:02:50.320Z,3.90
2019-03-20T15:07:57.225Z,4.17
2019-03-20T15:13:04.129Z,3.63
2019-03-20T15:18:10.607Z,3.60
2019-03-20T15:23:17.222Z,5.30
2019-03-20T15:28:23.853Z,3.50
2019-03-20T15:33:30.193Z,3.57
2019-03-20T15:38:36.230Z,3.40
2019-03-20T15:43:43.533Z,3.03
2019-03-20T15:48:50.110Z,7.00
2019-03-20T15:53:57.498Z,2.93
2019-03-20T15:59:04.293Z,2.80
2019-03-20T16:04:11.099Z,4.87
2019-03-20T16:09:18.021Z,3.43
2019-03-20T16:14:25.076Z,3.73
2019-03-20T16:19:31.051Z,3.70
2019-03-20T16:24:37.063Z,3.87
2019-03-20T16:29:43.667Z,3.53
2019-03-20T16:34:50.262Z,4.70
2019-03-20T16:39:58.189Z,3.80
2019-03-20T16:45:14.033Z,4.23
2019-03-20T16:50:21.064Z,4.90
2019-03-20T16:55:29.240Z,4.80
2019-03-20T17:00:35.865Z,4.23
2019-03-20T17:05:42.704Z,4.70
2019-03-20T17:10:49.745Z,5.93
2019-03-20T17:15:56.667Z,6.10
2019-03-20T17:21:03.264Z,5.80
2019-03-20T17:26:09.899Z,8.73
2019-03-20T17:31:16.349Z,8.90
2019-03-20T17:36:22.973Z,7.57
2019-03-20T17:41:36.582Z,6.43
2019-03-20T17:46:38.482Z,5.77
2019-03-20T17:51:46.624Z,4.37
2019-03-20T17:56:53.613Z,4.67
2019-03-20T18:02:02.043Z,4.30
2019-03-20T18:07:08.870Z,4.33
2019-03-20T18:12:15.957Z,4.07
2019-03-20T18:17:22.525Z,4.13
2019-03-20T18:22:29.709Z,4.70
2019-03-20T18:27:35.631Z,4.57
2019-03-20T18:32:42.384Z,5.20
2019-03-20T18:37:50.467Z,4.97
2019-03-20T18:42:57.488Z,4.30
2019-03-20T18:48:05.013Z,4.73
2019-03-20T18:53:13.187Z,5.37
2019-03-20T18:58:19.273Z,6.63
2019-03-20T19:03:47.996Z,7.17
2019-03-20T19:09:16.725Z,6.30
2019-03-20T19:14:24.297Z,6.40
2019-03-20T19:19:30.386Z,7.63
2019-03-20T19:24:37.334Z,7.53
2019-03-20T19:29:44.488Z,7.87
2019-03-20T19:34:51.486Z,9.47
2019-03-20T19:39:58.372Z,10.10
2019-03-20T19:45:10.186Z,10.60
2019-03-20T19:50:23.879Z,11.17
2019-03-20T19:55:30.007Z,11.43
2019-03-20T20:00:36.089Z,11.67
2019-03-20T20:05:44.078Z,12.17
2019-03-20T20:11:09.169Z,11.77
2019-03-20T20:16:20.729Z,12.47
2019-03-20T20:21:27.439Z,12.73
2019-03-20T20:26:33.320Z,13.53
2019-03-20T20:31:39.315Z,14.37
2019-03-20T20:37:19.376Z,14.47
2019-03-20T20:42:26.051Z,14.30
2019-03-20T20:47:31.907Z,14.17
2019-03-20T20:52:38.615Z,13.73
2019-03-20T20:58:05.864Z,13.63
2019-03-20T21:03:24.268Z,12.80
2019-03-20T21:08:30.201Z,12.93
2019-03-20T21:13:57.746Z,14.23
2019-03-20T21:19:35.860Z,13.73
2019-03-20T21:24:43.305Z,15.80
2019-03-20T21:30:13.676Z,13.83
2019-03-20T21:36:03.408Z,13.70
2019-03-20T21:41:31.892Z,12.13
2019-03-20T21:47:21.308Z,13.87
2019-03-20T21:52:28.140Z,13.87
2019-03-20T21:57:52.998Z,13.70
2019-03-20T22:03:00.842Z,14.30
2019-03-20T22:08:07.604Z,13.03
2019-03-20T22:13:20.858Z,13.77
2019-03-20T22:18:56.827Z,14.00
2019-03-20T22:24:22.333Z,13.40
2019-03-20T22:29:29.489Z,12.23
2019-03-20T22:34:57.604Z,10.87
2019-03-20T22:46:44.539Z,11.57
2019-03-20T22:52:12.685Z,10.47
2019-03-20T22:58:24.467Z,11.40
2019-03-20T23:03:34.641Z,10.57
2019-03-20T23:09:14.078Z,11.30
2019-03-20T23:14:20.767Z,10.33
2019-03-20T23:19:27.254Z,10.27
2019-03-20T23:24:33.092Z,11.00
2019-03-20T23:29:39.488Z,11.57
2019-03-20T23:34:45.884Z,12.00
2019-03-20T23:39:52.114Z,11.37
2019-03-20T23:44:58.945Z,9.53
2019-03-20T23:50:09.761Z,9.77
2019-03-20T23:55:16.671Z,9.73
